Time;durP1;ratioP1;P1;durP2;ratioP2;P2;SDS_P1;SDS_P2;PMS_P1;PMS_P2;Temp;Humidity;BMP_temperature;BMP_pressure;BME280_temperature;BME280_humidity;BME280_pressure;Samples;Min_cycle;Max_cycle;Signal;HPM_P1;HPM_P2
2023/01/12 00:02:00;;;;;;;0.40;0.40;;;;;;;-0.05;100.00;99585.06;5110363;28;20197;-63
2023/01/12 00:04:29;;;;;;;0.10;0.10;;;;;;;-0.15;100.00;99596.16;5110389;28;20240;-60
2023/01/12 00:06:57;;;;;;;0.10;0.10;;;;;;;-0.32;100.00;99604.88;5110441;28;20294;-60
2023/01/12 00:09:23;;;;;;;0.10;0.10;;;;;;;-0.21;100.00;99611.34;5110346;28;20277;-60
2023/01/12 00:11:50;;;;;;;0.43;0.43;;;;;;;-0.24;100.00;99610.56;5110447;28;20201;-63
2023/01/12 00:14:17;;;;;;;0.10;0.10;;;;;;;-0.15;100.00;99611.22;5110102;28;20224;-63
2023/01/12 00:16:44;;;;;;;0.20;0.20;;;;;;;-0.13;100.00;99619.56;5110356;28;20205;-60
2023/01/12 00:19:14;;;;;;;0.10;0.10;;;;;;;-0.21;100.00;99618.91;5110465;28;20213;-63
2023/01/12 00:21:58;;;;;;;0.40;0.40;;;;;;;-0.14;100.00;99620.44;5110353;28;20205;-63
2023/01/12 00:24:26;;;;;;;0.20;0.20;;;;;;;-0.21;100.00;99626.44;5110317;28;20297;-63
2023/01/12 00:26:54;;;;;;;0.20;0.20;;;;;;;-0.11;100.00;99623.72;5110146;28;20605;-60
2023/01/12 00:29:21;;;;;;;0.10;0.10;;;;;;;-0.13;100.00;99629.63;5109839;28;20217;-63
2023/01/12 00:31:49;;;;;;;0.33;0.33;;;;;;;-0.26;100.00;99629.88;5110035;28;20197;-63
2023/01/12 00:34:17;;;;;;;0.17;0.17;;;;;;;-0.28;100.00;99625.72;5110032;28;20219;-63
2023/01/12 00:36:45;;;;;;;0.37;0.37;;;;;;;-0.45;100.00;99633.59;5109978;28;20208;-63
2023/01/12 00:39:13;;;;;;;3.40;1.27;;;;;;;-0.44;100.00;99625.19;5110189;28;20221;-63
2023/01/12 00:47:10;;;;;;;0.10;0.10;;;;;;;-0.35;100.00;99619.16;5109874;28;20228;-63
2023/01/12 00:49:40;;;;;;;0.10;0.10;;;;;;;-0.24;100.00;99628.13;5110282;28;20217;-63
2023/01/12 00:52:08;;;;;;;0.20;0.20;;;;;;;-0.19;100.00;99630.56;5110018;28;20201;-63
2023/01/12 00:54:35;;;;;;;0.30;0.30;;;;;;;-0.26;100.00;99629.88;5109705;28;20239;-63
2023/01/12 00:57:03;;;;;;;0.40;0.40;;;;;;;-0.16;100.00;99627.19;5109728;28;20209;-63
2023/01/12 00:59:30;;;;;;;0.10;0.10;;;;;;;-0.13;100.00;99619.56;5110152;28;20796;-63
2023/01/12 01:01:58;;;;;;;0.13;0.13;;;;;;;-0.16;100.00;99615.44;5109727;28;20204;-60
2023/01/12 01:04:25;;;;;;;0.20;0.20;;;;;;;-0.13;100.00;99607.84;5109567;28;20221;-60
2023/01/12 01:06:53;;;;;;;0.40;0.40;;;;;;;-0.20;100.00;99613.84;5109705;28;20224;-60
2023/01/12 01:09:20;;;;;;;0.43;0.30;;;;;;;-0.16;100.00;99604.56;5109973;28;20501;-60
2023/01/12 01:11:47;;;;;;;0.27;0.27;;;;;;;-0.25;100.00;99590.50;5113709;28;20213;-60
2023/01/12 01:14:14;;;;;;;0.70;0.50;;;;;;;-0.21;100.00;99591.25;5113930;28;20228;-60
2023/01/12 01:16:41;;;;;;;0.20;0.20;;;;;;;-0.22;100.00;99599.66;5113777;28;20193;-61
2023/01/12 01:19:08;;;;;;;0.47;0.47;;;;;;;-0.08;100.00;99598.53;5113664;28;20223;-60
2023/01/12 01:21:35;;;;;;;0.10;0.10;;;;;;;-0.25;100.00;99603.06;5113687;28;20197;-60
2023/01/12 01:24:03;;;;;;;0.10;0.10;;;;;;;-0.36;100.00;99603.25;5113363;28;20217;-60
2023/01/12 01:26:30;;;;;;;0.10;0.10;;;;;;;-0.27;100.00;99598.06;5113583;28;20208;-60
2023/01/12 01:28:58;;;;;;;0.77;0.73;;;;;;;-0.30;100.00;99603.13;5113166;28;20233;-60
2023/01/12 01:31:26;;;;;;;0.20;0.20;;;;;;;-0.19;100.00;99600.41;5113374;28;20288;-60
2023/01/12 01:33:53;;;;;;;0.40;0.30;;;;;;;-0.29;100.00;99606.47;5113809;28;20217;-63
2023/01/12 01:36:21;;;;;;;0.10;0.10;;;;;;;-0.18;100.00;99601.25;5113473;28;20204;-63
2023/01/12 01:38:49;;;;;;;0.30;0.30;;;;;;;-0.03;100.00;99600.91;5113410;28;20228;-63
2023/01/12 01:41:23;;;;;;;0.10;0.10;;;;;;;0.03;100.00;99599.97;5113348;28;20197;-60
2023/01/12 01:43:54;;;;;;;0.10;0.10;;;;;;;-0.08;100.00;99602.72;5113461;28;20220;-60
2023/01/12 01:46:30;;;;;;;0.20;0.20;;;;;;;0.05;100.00;99604.09;5113180;28;20708;-60
2023/01/12 01:48:57;;;;;;;0.47;0.27;;;;;;;-0.13;100.00;99607.00;5113082;28;20727;-60
2023/01/12 01:51:24;;;;;;;0.10;0.10;;;;;;;-0.13;100.00;99609.53;5113110;28;20193;-63
2023/01/12 01:53:51;;;;;;;0.30;0.30;;;;;;;-0.28;100.00;99626.56;5112971;28;20739;-63
2023/01/12 01:56:23;;;;;;;0.33;0.33;;;;;;;-0.39;100.00;99618.38;5113087;28;20194;-63
2023/01/12 01:58:55;;;;;;;0.20;0.20;;;;;;;-0.34;100.00;99613.28;5113192;28;20239;-63
2023/01/12 02:01:22;;;;;;;0.20;0.20;;;;;;;-0.41;100.00;99614.25;5112991;28;20200;-63
2023/01/12 02:03:50;;;;;;;0.57;0.27;;;;;;;-0.52;100.00;99616.97;5112934;28;20244;-63
2023/01/12 02:06:17;;;;;;;0.27;0.27;;;;;;;-0.38;100.00;99612.50;5112436;28;20205;-63
2023/01/12 02:08:49;;;;;;;0.43;0.43;;;;;;;-0.45;100.00;99603.44;5112607;28;20233;-63
2023/01/12 02:16:54;;;;;;;1.50;0.57;;;;;;;-0.45;100.00;99610.97;5112644;28;20184;-63
2023/01/12 02:19:39;;;;;;;0.60;0.50;;;;;;;-0.45;100.00;99616.00;5113014;28;20221;-60
2023/01/12 02:22:28;;;;;;;1.20;0.40;;;;;;;-0.31;100.00;99621.59;5111581;28;20201;-63
2023/01/12 02:25:29;;;;;;;0.17;0.17;;;;;;;-0.44;100.00;99630.19;5112664;28;20217;-63
2023/01/12 02:28:16;;;;;;;0.60;0.57;;;;;;;-0.52;100.00;99632.88;5112350;28;20229;-60
2023/01/12 02:31:16;;;;;;;0.17;0.17;;;;;;;-0.34;100.00;99621.66;5112240;28;20259;-63
2023/01/12 02:33:51;;;;;;;0.30;0.30;;;;;;;-0.33;100.00;99622.47;5112163;28;20735;-60
2023/01/12 02:36:25;;;;;;;0.20;0.20;;;;;;;-0.38;100.00;99610.00;5112118;28;20204;-60
2023/01/12 02:38:58;;;;;;;0.20;0.20;;;;;;;-0.26;100.00;99612.28;5112616;28;20221;-63
2023/01/12 02:44:28;;;;;;;0.20;0.20;;;;;;;0.01;100.00;99597.50;5112152;28;20288;-63
2023/01/12 02:47:00;;;;;;;0.20;0.20;;;;;;;-0.04;100.00;99599.28;5111974;28;20582;-63
2023/01/12 02:49:32;;;;;;;0.53;0.40;;;;;;;-0.02;100.00;99592.53;5111827;28;20232;-60
2023/01/12 02:52:04;;;;;;;0.33;0.33;;;;;;;-0.04;100.00;99594.25;5111980;28;20708;-60
2023/01/12 02:54:33;;;;;;;0.20;0.20;;;;;;;-0.02;100.00;99590.84;5111733;28;20223;-60
2023/01/12 02:57:04;;;;;;;0.30;0.30;;;;;;;-0.02;100.00;99585.81;5111759;28;20189;-63
2023/01/12 02:59:33;;;;;;;0.20;0.20;;;;;;;0.00;100.00;99585.81;5111836;28;20218;-60
2023/01/12 03:02:06;;;;;;;3.13;0.50;;;;;;;0.02;100.00;99589.09;5111770;28;20193;-63
2023/01/12 03:04:33;;;;;;;0.20;0.20;;;;;;;-0.05;100.00;99595.13;5112044;28;20303;-60
2023/01/12 03:07:27;;;;;;;0.10;0.10;;;;;;;-0.05;100.00;99572.50;5111646;28;20193;-60
2023/01/12 03:09:59;;;;;;;0.30;0.30;;;;;;;-0.01;100.00;99574.06;5111545;28;20282;-60
2023/01/12 03:12:31;;;;;;;0.20;0.20;;;;;;;-0.24;100.00;99582.09;5111556;28;20629;-63
2023/01/12 03:15:02;;;;;;;0.20;0.20;;;;;;;-0.33;100.00;99583.09;5111577;28;20213;-60
2023/01/12 03:17:36;;;;;;;0.23;0.23;;;;;;;0.00;100.00;99585.81;5111740;28;20193;-63
2023/01/12 03:20:10;;;;;;;0.10;0.10;;;;;;;-0.10;100.00;99584.31;5111209;28;20225;-63
2023/01/12 03:22:38;;;;;;;0.30;0.30;;;;;;;-0.01;100.00;99574.06;5111403;28;20261;-63
2023/01/12 03:25:12;;;;;;;0.13;0.13;;;;;;;-0.05;100.00;99585.06;5111095;28;20217;-63
2023/01/12 03:27:42;;;;;;;0.10;0.10;;;;;;;0.06;100.00;99585.66;5111102;28;20252;-63
2023/01/12 03:30:15;;;;;;;0.20;0.20;;;;;;;0.09;100.00;99588.13;5111142;28;20338;-63
2023/01/12 03:32:43;;;;;;;0.40;0.40;;;;;;;0.05;100.00;99570.59;5110993;28;20212;-63
2023/01/12 03:35:11;;;;;;;1.10;0.60;;;;;;;-0.04;100.00;99574.13;5110898;28;20249;-60
2023/01/12 03:37:44;;;;;;;0.20;0.20;;;;;;;-0.08;100.00;99583.44;5111020;28;20193;-63
2023/01/12 03:40:15;;;;;;;0.70;0.67;;;;;;;-0.10;100.00;99579.31;5110868;28;20697;-60
2023/01/12 03:42:50;;;;;;;0.20;0.20;;;;;;;-0.14;100.00;99577.72;5111010;28;20208;-60
2023/01/12 03:45:27;;;;;;;0.30;0.30;;;;;;;-0.11;100.00;99588.53;5110758;28;20224;-63
2023/01/12 03:48:00;;;;;;;0.10;0.10;;;;;;;-0.24;100.00;99592.97;5111084;28;20236;-63
2023/01/12 03:50:31;;;;;;;0.20;0.20;;;;;;;-0.21;100.00;99597.09;5110742;28;20209;-63
2023/01/12 03:53:01;;;;;;;0.10;0.10;;;;;;;-0.29;100.00;99593.91;5111057;28;20209;-63
2023/01/12 03:55:30;;;;;;;0.40;0.33;;;;;;;-0.43;100.00;99586.66;5110933;28;20197;-63
2023/01/12 03:57:58;;;;;;;0.20;0.20;;;;;;;-0.42;100.00;99587.50;5110752;28;20201;-63
2023/01/12 04:00:27;;;;;;;0.13;0.13;;;;;;;-0.51;100.00;99583.47;5110415;28;20210;-63
2023/01/12 04:03:04;;;;;;;0.20;0.20;;;;;;;-0.19;100.00;99582.00;5110492;28;20204;-63
2023/01/12 04:05:31;;;;;;;0.10;0.10;;;;;;;-0.34;100.00;99566.38;5110490;28;20208;-63
2023/01/12 04:07:58;;;;;;;1.40;0.53;;;;;;;-0.30;100.00;99560.44;5110295;28;20193;-60
2023/01/12 04:10:25;;;;;;;0.30;0.30;;;;;;;-0.22;100.00;99564.47;5110971;28;20217;-63
2023/01/12 04:12:52;;;;;;;0.40;0.40;;;;;;;-0.26;100.00;99564.53;5110596;28;20208;-60
2023/01/12 04:15:19;;;;;;;0.17;0.17;;;;;;;-0.14;100.00;99572.69;5110129;28;20743;-63
2023/01/12 04:17:46;;;;;;;0.70;0.70;;;;;;;-0.30;100.00;99582.22;5110106;28;20600;-63
2023/01/12 04:20:14;;;;;;;0.20;0.20;;;;;;;-0.23;100.00;99578.75;5110061;28;20217;-60
2023/01/12 04:22:43;;;;;;;0.30;0.30;;;;;;;-0.35;100.00;99572.28;5110161;28;20201;-60
2023/01/12 04:25:10;;;;;;;0.10;0.10;;;;;;;-0.20;100.00;99568.63;5110051;28;20225;-63
2023/01/12 04:27:40;;;;;;;0.37;0.37;;;;;;;-0.46;100.00;99569.16;5110275;28;20205;-63
2023/01/12 04:30:08;;;;;;;0.50;0.50;;;;;;;-0.53;100.00;99570.94;5109677;28;20237;-63
2023/01/12 04:32:35;;;;;;;0.00;0.00;;;;;;;-0.53;100.00;99575.13;5110120;28;20203;-63
2023/01/12 04:35:02;;;;;;;0.20;0.20;;;;;;;-0.48;100.00;99575.88;5109865;28;20312;-60
2023/01/12 04:37:31;;;;;;;0.43;0.43;;;;;;;-0.26;100.00;99583.81;5110446;28;20212;-60
2023/01/12 04:39:58;;;;;;;0.20;0.20;;;;;;;-0.30;100.00;99590.56;5109920;28;20221;-60
2023/01/12 04:45:10;;;;;;;0.33;0.33;;;;;;;-0.23;100.00;99583.75;5109424;28;20266;-60
2023/01/12 04:47:37;;;;;;;1.10;0.67;;;;;;;-0.26;100.00;99593.88;5109947;28;20197;-60
2023/01/12 04:50:05;;;;;;;0.40;0.40;;;;;;;-0.35;100.00;99599.06;5109966;28;20229;-60
2023/01/12 04:52:33;;;;;;;0.70;0.70;;;;;;;-0.35;100.00;99604.94;5110004;28;20201;-63
2023/01/12 04:55:00;;;;;;;0.40;0.40;;;;;;;-0.31;100.00;99609.03;5109707;28;20224;-60
2023/01/12 04:57:27;;;;;;;0.20;0.20;;;;;;;-0.31;100.00;99603.19;5109994;28;20197;-61
2023/01/12 04:59:53;;;;;;;0.30;0.30;;;;;;;-0.27;100.00;99598.06;5110127;28;20223;-60
2023/01/12 05:02:20;;;;;;;0.20;0.20;;;;;;;-0.41;100.00;99589.94;5109861;28;20189;-60
2023/01/12 05:04:47;;;;;;;0.10;0.10;;;;;;;-0.22;100.00;99595.47;5109512;28;20367;-60
2023/01/12 05:07:15;;;;;;;0.10;0.10;;;;;;;-0.15;100.00;99596.16;5109712;28;20200;-60
2023/01/12 05:12:27;;;;;;;0.83;0.83;;;;;;;-0.42;100.00;99598.34;5109770;28;20203;-60
2023/01/12 05:14:54;;;;;;;0.30;0.30;;;;;;;-0.27;100.00;99603.06;5109823;28;20217;-60
2023/01/12 05:17:21;;;;;;;0.60;0.50;;;;;;;-0.30;100.00;99600.63;5109586;28;20197;-64
2023/01/12 05:19:48;;;;;;;0.63;0.63;;;;;;;-0.12;100.00;99598.59;5109688;28;20221;-64
2023/01/12 05:22:15;;;;;;;0.17;0.17;;;;;;;-0.27;100.00;99597.22;5109634;28;20200;-65
2023/01/12 05:24:43;;;;;;;0.10;0.10;;;;;;;-0.32;100.00;99597.34;5109930;28;20217;-64
2023/01/12 05:27:10;;;;;;;0.37;0.37;;;;;;;-0.01;100.00;99616.81;5109695;28;20193;-64
2023/01/12 05:29:37;;;;;;;0.30;0.30;;;;;;;-0.04;100.00;99626.91;5109339;28;20239;-60
2023/01/12 05:32:04;;;;;;;0.60;0.50;;;;;;;0.01;100.00;99632.69;5109363;28;20193;-64
2023/01/12 05:34:31;;;;;;;0.67;0.47;;;;;;;-0.14;100.00;99633.00;5109601;28;20217;-60
2023/01/12 05:36:58;;;;;;;0.10;0.10;;;;;;;-0.16;100.00;99630.50;5109349;28;20197;-60
2023/01/12 05:39:25;;;;;;;0.10;0.10;;;;;;;-0.13;100.00;99625.41;5109523;28;20224;-64
2023/01/12 05:44:37;;;;;;;0.37;0.37;;;;;;;-0.27;100.00;99628.19;5109466;28;20616;-61
2023/01/12 05:47:04;;;;;;;0.17;0.17;;;;;;;-0.21;100.00;99632.28;5109134;28;20197;-60
2023/01/12 05:49:31;;;;;;;0.50;0.50;;;;;;;-0.01;100.00;99630.19;5109433;28;20229;-60
2023/01/12 05:51:58;;;;;;;0.23;0.23;;;;;;;-0.05;100.00;99632.81;5109221;28;20189;-64
2023/01/12 05:54:25;;;;;;;0.77;0.23;;;;;;;-0.02;100.00;99642.81;5109551;28;20213;-64
2023/01/12 05:56:54;;;;;;;0.30;0.30;;;;;;;-0.13;100.00;99644.72;5109893;28;20266;-60
2023/01/12 05:59:21;;;;;;;0.63;0.63;;;;;;;-0.12;100.00;99642.16;5113208;28;20217;-60
2023/01/12 06:01:48;;;;;;;0.23;0.23;;;;;;;-0.30;100.00;99643.34;5112642;28;20197;-60
2023/01/12 06:04:15;;;;;;;0.33;0.33;;;;;;;-0.18;100.00;99647.28;5112588;28;20570;-60
2023/01/12 06:06:42;;;;;;;0.20;0.20;;;;;;;-0.12;100.00;99643.84;5112879;28;20189;-64
2023/01/12 06:09:08;;;;;;;0.20;0.20;;;;;;;-0.06;100.00;99646.22;5113084;28;20310;-64
2023/01/12 06:14:21;;;;;;;0.20;0.20;;;;;;;0.08;100.00;99649.28;5112557;28;20271;-64
2023/01/12 06:16:48;;;;;;;1.00;0.30;;;;;;;0.09;100.00;99645.09;5112654;27;20193;-64
2023/01/12 06:19:15;;;;;;;0.33;0.33;;;;;;;0.07;100.00;99646.81;5112853;28;20220;-64
2023/01/12 06:21:41;;;;;;;0.20;0.20;;;;;;;-0.04;100.00;99654.56;5112385;28;20676;-64
2023/01/12 06:24:09;;;;;;;0.73;0.53;;;;;;;0.09;100.00;99656.00;5112364;28;20221;-64
2023/01/12 06:26:35;;;;;;;0.87;0.60;;;;;;;0.18;100.00;99660.81;5112454;28;20189;-64
2023/01/12 06:29:05;;;;;;;0.13;0.13;;;;;;;0.07;100.00;99661.91;5112200;28;20229;-63
2023/01/12 06:31:34;;;;;;;0.20;0.20;;;;;;;-0.21;100.00;99656.59;5112075;28;20198;-61
2023/01/12 06:34:01;;;;;;;0.30;0.30;;;;;;;-0.07;100.00;99654.63;5112394;28;20237;-61
2023/01/12 06:36:27;;;;;;;0.30;0.30;;;;;;;0.17;100.00;99658.34;5112509;28;20200;-61
2023/01/12 06:38:54;;;;;;;0.20;0.20;;;;;;;0.20;100.00;99664.16;5112397;28;20731;-61
2023/01/12 06:44:06;;;;;;;0.40;0.40;;;;;;;0.18;100.00;99665.84;5111941;28;20223;-61
2023/01/12 06:46:34;;;;;;;0.40;0.40;;;;;;;0.27;100.00;99669.06;5112010;28;20201;-61
2023/01/12 06:49:01;;;;;;;0.63;0.30;;;;;;;0.34;100.00;99670.56;5111817;27;20236;-65
2023/01/12 06:51:28;;;;;;;0.23;0.23;;;;;;;0.43;100.00;99676.22;5112245;28;20204;-61
2023/01/12 06:53:55;;;;;;;0.33;0.33;;;;;;;0.48;100.00;99671.09;5112183;28;20240;-65
2023/01/12 06:56:22;;;;;;;0.50;0.50;;;;;;;0.55;100.00;99670.09;5111797;28;20205;-65
2023/01/12 06:58:49;;;;;;;0.90;0.90;;;;;;;0.73;100.00;99663.00;5111579;28;20235;-65
2023/01/12 07:01:16;;;;;;;0.47;0.47;;;;;;;0.76;100.00;99667.97;5111707;28;20557;-61
2023/01/12 07:03:45;;;;;;;1.03;0.93;;;;;;;0.77;100.00;99669.63;5111329;28;20604;-61
2023/01/12 07:06:13;;;;;;;0.30;0.30;;;;;;;0.82;100.00;99667.84;5111663;28;20194;-61
2023/01/12 07:08:40;;;;;;;0.73;0.73;;;;;;;0.87;100.00;99676.09;5111180;28;20225;-65
2023/01/12 07:11:07;;;;;;;0.50;0.50;;;;;;;1.00;100.00;99671.59;5111591;28;20200;-61
2023/01/12 07:13:35;;;;;;;0.50;0.50;;;;;;;1.04;100.00;99674.00;5111405;28;20271;-61
2023/01/12 07:16:02;;;;;;;0.33;0.33;;;;;;;1.04;100.00;99679.03;5111585;28;20208;-62
2023/01/12 07:18:30;;;;;;;0.30;0.30;;;;;;;1.13;100.00;99676.31;5111424;28;20658;-62
2023/01/12 07:20:58;;;;;;;0.30;0.30;;;;;;;1.09;100.00;99691.53;5111284;28;20201;-62
2023/01/12 07:23:25;;;;;;;0.10;0.10;;;;;;;0.99;100.00;99688.41;5111426;28;20221;-62
2023/01/12 07:25:52;;;;;;;0.40;0.40;;;;;;;1.03;100.00;99702.56;5111279;27;20201;-62
2023/01/12 07:28:19;;;;;;;0.10;0.10;;;;;;;1.19;100.00;99699.69;5111060;28;20208;-62
2023/01/12 07:30:46;;;;;;;0.43;0.43;;;;;;;1.25;100.00;99707.94;5110996;28;20232;-62
2023/01/12 07:33:14;;;;;;;0.10;0.10;;;;;;;1.31;100.00;99704.44;5111093;28;20234;-62
2023/01/12 07:35:42;;;;;;;0.30;0.30;;;;;;;1.22;100.00;99708.00;5111057;28;20263;-66
2023/01/12 07:38:10;;;;;;;0.83;0.63;;;;;;;0.99;100.00;99710.22;5111360;28;20204;-66
2023/01/12 07:40:37;;;;;;;0.10;0.10;;;;;;;0.89;100.00;99704.56;5111341;28;20228;-62
2023/01/12 07:43:05;;;;;;;0.30;0.30;;;;;;;0.96;100.00;99715.31;5110058;28;20208;-62
2023/01/12 07:45:33;;;;;;;0.20;0.20;;;;;;;1.05;100.00;99713.44;5109784;28;20262;-62
2023/01/12 07:48:00;;;;;;;0.83;0.83;;;;;;;1.12;100.00;99717.47;5110367;28;20204;-62
2023/01/12 07:50:28;;;;;;;0.37;0.37;;;;;;;1.16;100.00;99712.34;5110871;28;20619;-62
2023/01/12 07:52:55;;;;;;;0.60;0.60;;;;;;;1.01;100.00;99724.44;5110528;28;20573;-62
2023/01/12 07:55:24;;;;;;;1.50;0.70;;;;;;;0.94;100.00;99722.09;5110693;28;20225;-67
2023/01/12 07:57:54;;;;;;;0.33;0.23;;;;;;;0.97;100.00;99727.06;5109663;28;20219;-66
2023/01/12 08:00:22;;;;;;;0.67;0.40;;;;;;;1.04;100.00;99731.91;5110604;28;20273;-66
2023/01/12 08:02:49;;;;;;;0.20;0.20;;;;;;;1.07;100.00;99734.34;5110683;28;20196;-66
2023/01/12 08:05:16;;;;;;;2.93;0.63;;;;;;;1.15;100.00;99733.38;5110310;28;20217;-66
2023/01/12 08:07:43;;;;;;;0.50;0.50;;;;;;;1.26;100.00;99731.44;5110213;28;20200;-63
2023/01/12 08:10:11;;;;;;;0.90;0.90;;;;;;;1.22;100.00;99737.38;5110278;28;20229;-63
2023/01/12 08:12:40;;;;;;;0.20;0.20;;;;;;;1.34;100.00;99737.13;5110353;28;20193;-63
2023/01/12 08:15:08;;;;;;;0.20;0.20;;;;;;;1.30;100.00;99738.84;5110470;28;20213;-66
2023/01/12 08:17:42;;;;;;;0.20;0.20;;;;;;;1.31;100.00;99737.19;5110395;28;20681;-66
2023/01/12 08:20:16;;;;;;;0.93;0.40;;;;;;;1.34;100.00;99742.16;5109258;28;20228;-66
2023/01/12 08:22:48;;;;;;;0.40;0.40;;;;;;;1.33;100.00;99746.34;5109994;28;20198;-66
2023/01/12 08:25:19;;;;;;;0.10;0.10;;;;;;;1.38;100.00;99743.72;5110142;28;20213;-66
2023/01/12 08:27:52;;;;;;;1.40;0.93;;;;;;;1.48;100.00;99740.09;5109972;28;20201;-66
2023/01/12 08:30:21;;;;;;;0.10;0.10;;;;;;;1.59;100.00;99742.38;5109755;28;20324;-66
2023/01/12 08:32:48;;;;;;;0.43;0.43;;;;;;;1.61;100.00;99745.69;5109981;28;20301;-63
2023/01/12 08:35:20;;;;;;;0.10;0.10;;;;;;;1.58;100.00;99756.66;5109763;28;20604;-63
2023/01/12 08:37:46;;;;;;;1.03;0.37;;;;;;;1.65;100.00;99751.47;5109885;28;20205;-63
2023/01/12 08:40:14;;;;;;;0.77;0.20;;;;;;;1.81;100.00;99747.69;5109847;28;20209;-63
2023/01/12 08:42:41;;;;;;;0.10;0.10;;;;;;;1.91;100.00;99750.81;5109884;28;20669;-63
2023/01/12 08:45:11;;;;;;;0.20;0.20;;;;;;;2.07;100.00;99753.75;5109898;28;20228;-63
2023/01/12 08:47:39;;;;;;;0.40;0.40;;;;;;;2.17;100.00;99758.50;5110089;28;20197;-65
2023/01/12 08:50:07;;;;;;;0.10;0.10;;;;;;;2.38;100.00;99753.72;5109965;28;20240;-66
2023/01/12 08:52:35;;;;;;;1.60;0.57;;;;;;;2.39;100.00;99756.22;5109668;28;20189;-63
2023/01/12 08:55:02;;;;;;;0.27;0.27;;;;;;;2.38;100.00;99748.69;5109812;28;20225;-63
2023/01/12 08:57:29;;;;;;;0.20;0.20;;;;;;;2.28;100.00;99749.81;5109823;28;20669;-65
2023/01/12 08:59:56;;;;;;;0.37;0.37;;;;;;;2.23;100.00;99754.97;5109905;28;20225;-65
2023/01/12 09:02:25;;;;;;;1.13;0.70;;;;;;;2.12;100.00;99759.50;5109634;28;20295;-66
2023/01/12 09:04:52;;;;;;;0.30;0.30;;;;;;;2.04;100.00;99760.53;5109741;28;20228;-65
2023/01/12 09:07:19;;;;;;;0.10;0.10;;;;;;;2.10;100.00;99759.53;5109044;28;20197;-65
2023/01/12 09:09:46;;;;;;;0.83;0.57;;;;;;;2.16;100.00;99751.81;5108995;28;20232;-65
2023/01/12 09:12:13;;;;;;;0.90;0.83;;;;;;;2.10;100.00;99756.19;5109696;28;20212;-66
2023/01/12 09:14:40;;;;;;;0.63;0.63;;;;;;;2.11;100.00;99760.38;5109656;28;20213;-65
2023/01/12 09:17:07;;;;;;;0.30;0.30;;;;;;;1.99;100.00;99757.31;5109667;28;20220;-63
2023/01/12 09:19:35;;;;;;;0.97;0.83;;;;;;;2.01;100.00;99763.13;5109502;28;20217;-63
2023/01/12 09:22:02;;;;;;;0.37;0.37;;;;;;;2.16;100.00;99769.47;5109445;28;20206;-65
2023/01/12 09:24:29;;;;;;;0.30;0.30;;;;;;;2.29;100.00;99764.91;5109681;28;20228;-63
2023/01/12 09:26:56;;;;;;;0.17;0.17;;;;;;;2.33;100.00;99758.94;5109401;28;20197;-63
2023/01/12 09:29:23;;;;;;;0.20;0.20;;;;;;;2.52;100.00;99758.41;5109392;28;20239;-63
2023/01/12 09:31:49;;;;;;;1.10;0.50;;;;;;;2.62;100.00;99757.28;5111375;28;20202;-63
2023/01/12 09:34:16;;;;;;;0.40;0.27;;;;;;;2.74;100.00;99761.97;5113705;28;20220;-65
2023/01/12 09:36:49;;;;;;;0.20;0.13;;;;;;;2.95;100.00;99756.25;5113405;28;20193;-64
2023/01/12 09:39:16;;;;;;;0.57;0.43;;;;;;;3.10;100.00;99749.09;5113377;28;20221;-63
2023/01/12 09:47:28;;;;;;;0.40;0.40;;;;;;;3.12;100.00;99747.34;5113299;28;20205;-65
2023/01/12 09:50:01;;;;;;;0.10;0.10;;;;;;;3.26;100.00;99752.81;5113566;28;20224;-65
2023/01/12 09:52:33;;;;;;;0.20;0.20;;;;;;;3.35;100.00;99739.88;5113459;28;20190;-63
2023/01/12 09:55:00;;;;;;;0.47;0.47;;;;;;;3.40;100.00;99743.09;5113129;28;20701;-63
2023/01/12 09:58:23;;;;;;;0.20;0.20;;;;;;;3.46;100.00;99751.31;5113095;28;20200;-63
2023/01/12 10:00:51;;;;;;;0.10;0.10;;;;;;;3.45;100.00;99742.09;5015268;28;20710;-64
2023/01/12 10:03:28;;;;;;;0.67;0.30;;;;;;;3.35;100.00;99734.00;5109858;28;20282;-64
2023/01/12 10:05:58;;;;;;;0.57;0.33;;;;;;;3.35;100.00;99734.81;5112854;28;20201;-65
2023/01/12 10:08:31;;;;;;;2.43;0.30;;;;;;;3.23;100.00;99745.31;5112816;28;20252;-65
2023/01/12 10:11:10;;;;;;;0.20;0.20;;;;;;;3.18;100.00;99732.81;5112762;28;20236;-65
2023/01/12 10:14:13;;;;;;;0.27;0.27;;;;;;;3.21;100.00;99731.91;5112689;28;20217;-65
2023/01/12 10:16:53;;;;;;;3.30;0.47;;;;;;;2.95;100.00;99725.13;5112707;28;20201;-64
2023/01/12 10:19:25;;;;;;;0.00;0.00;;;;;;;3.01;100.00;99724.94;5112820;28;20243;-63
2023/01/12 10:21:54;;;;;;;0.10;0.10;;;;;;;3.00;100.00;99723.28;5112815;27;20231;-64
2023/01/12 10:24:23;;;;;;;0.20;0.20;;;;;;;3.00;100.00;99725.00;5112479;28;20240;-63
2023/01/12 10:26:57;;;;;;;0.30;0.30;;;;;;;3.07;100.00;99719.69;5112656;28;20212;-64
2023/01/12 10:29:24;;;;;;;0.20;0.20;;;;;;;3.07;100.00;99718.88;5112864;27;20289;-63
2023/01/12 10:31:50;;;;;;;0.10;0.10;;;;;;;2.95;100.00;99708.28;5112451;28;20232;-64
2023/01/12 10:34:17;;;;;;;0.30;0.30;;;;;;;3.07;100.00;99712.13;5112155;28;20213;-63
2023/01/12 10:36:48;;;;;;;0.10;0.10;;;;;;;3.19;100.00;99713.44;5112157;28;20240;-64
2023/01/12 10:39:30;;;;;;;0.07;0.07;;;;;;;3.31;100.00;99722.31;5112158;27;20217;-64
2023/01/12 10:45:19;;;;;;;0.40;0.40;;;;;;;3.33;100.00;99705.41;5112312;28;20236;-65
2023/01/12 10:47:48;;;;;;;0.10;0.10;;;;;;;3.36;100.00;99710.34;5111879;28;20284;-64
2023/01/12 10:50:24;;;;;;;0.20;0.20;;;;;;;3.18;100.00;99711.78;5111959;28;20727;-64
2023/01/12 10:52:55;;;;;;;0.50;0.50;;;;;;;2.95;100.00;99702.41;5112186;28;20193;-63
2023/01/12 10:55:28;;;;;;;0.40;0.37;;;;;;;2.71;100.00;99701.47;5112122;28;20615;-63
2023/01/12 10:57:55;;;;;;;0.30;0.30;;;;;;;2.39;100.00;99700.72;5112220;28;20193;-64
2023/01/12 11:00:25;;;;;;;0.30;0.30;;;;;;;2.35;100.00;99704.16;5111819;28;20232;-64
2023/01/12 11:02:52;;;;;;;0.10;0.10;;;;;;;2.16;100.00;99700.53;5112161;28;20446;-65
2023/01/12 11:05:37;;;;;;;0.53;0.30;;;;;;;1.94;100.00;99697.75;5111567;28;20709;-63
2023/01/12 11:08:22;;;;;;;0.50;0.50;;;;;;;1.81;100.00;99688.00;5111510;28;20205;-64
2023/01/12 11:10:50;;;;;;;0.20;0.20;;;;;;;1.68;100.00;99695.94;5111710;28;20233;-63
2023/01/12 11:13:26;;;;;;;0.20;0.20;;;;;;;1.62;100.00;99693.59;5111413;28;20197;-64
2023/01/12 11:16:00;;;;;;;0.27;0.27;;;;;;;1.61;100.00;99684.38;5111667;28;20273;-65
2023/01/12 11:18:38;;;;;;;1.07;0.50;;;;;;;1.55;100.00;99683.66;5111578;28;20227;-64
2023/01/12 11:21:09;;;;;;;0.20;0.20;;;;;;;1.57;100.00;99676.03;5111741;28;20193;-64
2023/01/12 11:23:41;;;;;;;0.30;0.30;;;;;;;1.69;100.00;99673.22;5111441;28;20213;-63
2023/01/12 11:26:18;;;;;;;0.73;0.73;;;;;;;1.69;100.00;99682.50;5111709;28;20209;-63
2023/01/12 11:28:48;;;;;;;0.40;0.40;;;;;;;1.59;100.00;99679.38;5111029;28;20233;-63
2023/01/12 11:31:19;;;;;;;0.10;0.10;;;;;;;1.85;100.00;99672.81;5111091;28;20634;-63
2023/01/12 11:33:50;;;;;;;0.57;0.57;;;;;;;2.01;100.00;99674.88;5111176;28;20252;-63
2023/01/12 11:36:20;;;;;;;0.20;0.20;;;;;;;1.86;100.00;99670.22;5111273;28;20205;-63
2023/01/12 11:38:50;;;;;;;0.10;0.10;;;;;;;2.01;100.00;99674.88;5111129;28;20218;-63
2023/01/12 11:41:25;;;;;;;0.50;0.50;;;;;;;2.06;100.00;99676.44;5111388;27;20201;-63
2023/01/12 11:43:57;;;;;;;0.53;0.43;;;;;;;2.32;100.00;99684.06;5110676;28;20232;-64
2023/01/12 11:46:28;;;;;;;0.50;0.17;;;;;;;2.34;100.00;99673.97;5111013;28;20695;-64
2023/01/12 11:49:06;;;;;;;0.43;0.43;;;;;;;2.10;100.00;99683.88;5111109;28;20217;-63
2023/01/12 11:51:33;;;;;;;0.40;0.40;;;;;;;2.07;100.00;99683.16;5110885;28;20233;-63
2023/01/12 11:54:00;;;;;;;0.60;0.47;;;;;;;2.14;100.00;99689.66;5110475;28;20221;-62
2023/01/12 11:57:03;;;;;;;0.27;0.27;;;;;;;2.00;100.00;99678.25;5110170;28;20208;-63
2023/01/12 11:59:36;;;;;;;0.23;0.23;;;;;;;1.84;100.00;99684.59;5110677;28;20217;-63
2023/01/12 12:02:16;;;;;;;0.50;0.50;;;;;;;1.73;100.00;99684.03;5110558;28;20197;-63
2023/01/12 12:04:55;;;;;;;1.73;0.67;;;;;;;1.73;100.00;99681.53;5110295;28;20224;-63
2023/01/12 12:07:39;;;;;;;0.40;0.40;;;;;;;1.80;100.00;99672.91;5110845;28;20383;-62
2023/01/12 12:10:21;;;;;;;0.70;0.20;;;;;;;1.80;100.00;99678.81;5110223;28;20720;-64
2023/01/12 12:13:11;;;;;;;0.83;0.50;;;;;;;2.08;100.00;99684.78;5110519;28;20212;-63
2023/01/12 12:15:45;;;;;;;0.30;0.30;;;;;;;2.20;100.00;99689.47;5110617;28;20212;-63
2023/01/12 12:18:23;;;;;;;0.57;0.57;;;;;;;2.22;100.00;99686.03;5110002;28;20199;-63
2023/01/12 12:21:03;;;;;;;0.73;0.40;;;;;;;2.09;100.00;99678.88;5110457;28;20208;-62